Pagrindinis puslapis
METAR-TAF:

METAR-TAF

Oro uostai :

Florești, Moldavija

platuma: 47-51-45N, ilguma: 028-12-45E, Aukštis: 101 m

Dabartinis oras

Ataskaita buvo paskelbta 17 valandos ir 31 minutes, ne 15:00 UTC
Ramus vėjas
Temperatūra 20°C
Drėgmė 56%
Slėgis 1018 hPa
Matomumas 10 km arba daugiau
nėra debesų žemiau 1500 m ir nėra kamuolinių lietaus debesų

METAR: LUBM 171500Z 00000KT CAVOK 20/11 Q1018 R07/CLRD65

Laikas: 11:31 (08:31 UTC)

Prognozė

Ataskaita buvo paskelbta 18 valandos ir 11 minutes, ne 14:20 UTC
Prognozė galioja nuo 17 metu 15 UTC su 17 metu 24 UTC
Vėjas 5 kt nuo kintamojo kryptimis
Matomumas 10 km arba daugiau
nėra debesų žemiau 1500 m ir nėra kamuolinių lietaus debesų

TAF: LUBM 171420Z 1715/1724 VRB05KT CAVOK

Orai ataskaitas ir orų prognozės (METAR, TAF).

turimą stotys yra geltonos ir raudonos taškus žemėlapyje.

Perkelti pele per norėdami pamatyti stoties vardą.

Tada spustelėkite, norėdami matyti oro stebėjimo ir prognozės.

Norėdami pakeisti žemėlapį: spustelėkite ant žalios mygtukų su juodo kryžiaus žemyn,; žalią mygtuką su brūkšneliu, jei norite nutolinti; arba žalių rodyklių gretimoms žemėlapius.


METAR-TAF: